createdAt,value
2023-04-05T00:02:21.916Z,1.90
2023-04-05T00:04:54.888Z,1.90
2023-04-05T00:07:22.402Z,1.90
2023-04-05T00:09:49.698Z,1.80
2023-04-05T00:12:17.021Z,1.80
2023-04-05T00:14:44.383Z,1.80
2023-04-05T00:17:12.792Z,1.80
2023-04-05T00:19:40.146Z,1.80
2023-04-05T00:22:10.650Z,1.90
2023-04-05T00:24:39.147Z,1.90
2023-04-05T00:27:06.360Z,1.90
2023-04-05T00:29:34.268Z,1.90
2023-04-05T00:32:04.795Z,1.90
2023-04-05T00:34:33.776Z,1.90
2023-04-05T00:37:01.490Z,2.00
2023-04-05T00:39:28.833Z,2.00
2023-04-05T00:41:56.544Z,2.00
2023-04-05T00:44:23.875Z,2.00
2023-04-05T00:46:51.661Z,1.90
2023-04-05T00:49:19.005Z,1.90
2023-04-05T00:51:47.012Z,1.90
2023-04-05T00:54:15.349Z,1.90
2023-04-05T00:56:42.948Z,2.00
2023-04-05T00:59:10.142Z,1.90
2023-04-05T01:01:40.756Z,1.90
2023-04-05T01:04:11.728Z,1.90
2023-04-05T01:06:45.032Z,2.00
2023-04-05T01:09:18.889Z,1.90
2023-04-05T01:11:47.567Z,1.80
2023-04-05T01:14:14.921Z,1.80
2023-04-05T01:16:42.101Z,1.80
2023-04-05T01:19:10.368Z,1.80
2023-04-05T01:21:46.154Z,1.80
2023-04-05T01:24:25.276Z,1.80
2023-04-05T01:27:12.470Z,1.80
2023-04-05T01:29:58.327Z,1.70
2023-04-05T01:33:01.150Z,1.70
2023-04-05T01:35:40.138Z,1.70
2023-04-05T01:38:11.398Z,1.70
2023-04-05T01:40:41.077Z,1.80
2023-04-05T01:43:16.094Z,1.80
2023-04-05T01:45:45.539Z,1.70
2023-04-05T01:48:14.202Z,1.70
2023-04-05T01:50:41.633Z,1.70
2023-04-05T01:53:09.393Z,1.60
2023-04-05T01:55:36.978Z,1.60
2023-04-05T01:58:04.348Z,1.60
2023-04-05T02:00:32.752Z,1.60
2023-04-05T02:03:00.120Z,1.70
2023-04-05T02:05:27.482Z,1.60
2023-04-05T02:07:54.714Z,1.70
2023-04-05T02:10:25.459Z,1.60
2023-04-05T02:12:55.013Z,1.60
2023-04-05T02:15:22.324Z,1.50
2023-04-05T02:17:49.625Z,1.50
2023-04-05T02:20:18.499Z,1.50
2023-04-05T02:22:46.404Z,1.60
2023-04-05T02:25:13.943Z,1.60
2023-04-05T02:27:41.337Z,1.60
2023-04-05T02:30:09.561Z,1.50
2023-04-05T02:32:37.018Z,1.60
2023-04-05T02:35:05.360Z,1.60
2023-04-05T02:37:32.734Z,1.60
2023-04-05T02:40:02.162Z,1.60
2023-04-05T02:42:30.469Z,1.70
2023-04-05T02:44:57.655Z,1.70
2023-04-05T02:47:25.062Z,1.60
2023-04-05T02:49:58.447Z,1.60
2023-04-05T02:52:32.345Z,1.60
2023-04-05T02:54:59.900Z,1.50
2023-04-05T02:57:31.237Z,1.50
2023-04-05T03:00:07.195Z,1.50
2023-04-05T03:02:34.918Z,1.50
2023-04-05T03:05:03.652Z,1.50
2023-04-05T03:07:33.396Z,1.50
2023-04-05T03:10:05.197Z,1.50
2023-04-05T03:12:33.416Z,1.50
2023-04-05T03:15:01.035Z,1.40
2023-04-05T03:17:35.309Z,1.40
2023-04-05T03:20:09.058Z,1.40
2023-04-05T03:22:37.085Z,1.40
2023-04-05T03:25:06.490Z,1.50
2023-04-05T03:27:40.355Z,1.40
2023-04-05T03:30:14.392Z,1.40
2023-04-05T03:32:48.631Z,1.40
2023-04-05T03:35:29.453Z,1.40
2023-04-05T03:37:57.517Z,1.30
2023-04-05T03:40:25.557Z,1.30
2023-04-05T03:42:53.641Z,1.40
2023-04-05T03:45:24.367Z,1.40
2023-04-05T03:47:52.597Z,1.40
2023-04-05T03:50:19.884Z,1.40
2023-04-05T03:52:47.229Z,1.40
2023-04-05T03:55:16.943Z,1.40
2023-04-05T03:57:45.412Z,1.40
2023-04-05T04:00:30.113Z,1.40
2023-04-05T04:03:10.733Z,1.40
2023-04-05T04:05:42.506Z,1.40
2023-04-05T04:08:11.130Z,1.50
2023-04-05T04:10:38.976Z,1.60
2023-04-05T04:13:15.698Z,1.60
2023-04-05T04:15:43.482Z,1.60
2023-04-05T04:18:31.001Z,1.60
2023-04-05T04:21:24.916Z,1.60
2023-04-05T04:24:18.751Z,1.60
2023-04-05T04:26:54.677Z,1.60
2023-04-05T04:29:39.240Z,1.50
2023-04-05T04:32:26.965Z,1.60
2023-04-05T04:35:05.823Z,1.70
2023-04-05T04:37:47.408Z,1.70
2023-04-05T04:40:46.636Z,1.70
2023-04-05T04:43:27.409Z,1.90
2023-04-05T04:46:31.460Z,1.90
2023-04-05T04:49:06.224Z,1.90
2023-04-05T04:51:33.901Z,1.90
2023-04-05T04:54:01.348Z,1.90
2023-04-05T04:56:28.803Z,2.00
2023-04-05T04:58:58.335Z,1.90
2023-04-05T05:01:26.653Z,1.90
2023-04-05T05:03:53.949Z,2.00
2023-04-05T05:06:33.788Z,2.00
2023-04-05T05:09:01.346Z,2.10
2023-04-05T05:11:30.174Z,2.10
2023-04-05T05:13:59.228Z,2.10
2023-04-05T05:16:28.548Z,2.10
2023-04-05T05:18:55.738Z,2.10
2023-04-05T05:21:26.854Z,2.10
2023-04-05T05:23:58.444Z,2.20
2023-04-05T05:26:26.515Z,2.20
2023-04-05T05:28:54.164Z,2.20
2023-04-05T05:31:22.901Z,2.30
2023-04-05T05:33:50.910Z,2.30
2023-04-05T05:36:20.117Z,2.30
2023-04-05T05:38:47.731Z,2.30
2023-04-05T05:41:15.087Z,2.40
2023-04-05T05:43:42.232Z,2.40
2023-04-05T05:46:09.754Z,2.40
2023-04-05T05:48:36.997Z,2.40
2023-04-05T05:51:09.805Z,2.30
2023-04-05T05:53:37.852Z,2.40
2023-04-05T05:56:06.408Z,2.40
2023-04-05T05:58:33.720Z,2.40
2023-04-05T06:01:03.774Z,2.40
2023-04-05T06:03:31.234Z,2.40
2023-04-05T06:06:00.066Z,2.40
2023-04-05T06:08:27.904Z,2.40
2023-04-05T06:10:55.447Z,2.50
2023-04-05T06:13:22.702Z,2.50
2023-04-05T06:15:50.981Z,2.50
2023-04-05T06:18:18.379Z,2.50
2023-04-05T06:20:45.805Z,2.50
2023-04-05T06:23:13.451Z,2.50
2023-04-05T06:25:40.994Z,2.60
2023-04-05T06:28:08.330Z,2.50
2023-04-05T06:30:35.610Z,2.50
2023-04-05T06:33:02.930Z,2.50
2023-04-05T06:35:30.496Z,2.60
2023-04-05T06:37:57.955Z,2.50
2023-04-05T06:40:25.446Z,2.60
2023-04-05T06:42:52.727Z,2.60
2023-04-05T06:45:24.015Z,2.70
2023-04-05T06:47:51.607Z,2.70
2023-04-05T06:50:18.832Z,2.70
2023-04-05T06:52:46.432Z,2.80
2023-04-05T06:55:13.898Z,2.90
2023-04-05T06:57:41.313Z,3.00
2023-04-05T07:00:13.230Z,3.10
2023-04-05T07:02:40.948Z,3.00
2023-04-05T07:05:08.958Z,2.90
2023-04-05T07:07:41.085Z,3.00
2023-04-05T07:10:09.136Z,3.20
2023-04-05T07:12:37.000Z,3.40
2023-04-05T07:15:04.709Z,3.40
2023-04-05T07:17:32.171Z,3.40
2023-04-05T07:19:59.533Z,3.50
2023-04-05T07:22:27.164Z,3.30
2023-04-05T07:24:55.696Z,3.30
2023-04-05T07:27:23.131Z,3.30
2023-04-05T07:29:50.595Z,3.50
2023-04-05T07:32:17.861Z,3.40
2023-04-05T07:34:45.914Z,3.50
2023-04-05T07:37:13.252Z,3.60
2023-04-05T07:39:40.975Z,3.70
2023-04-05T07:42:08.264Z,3.70
2023-04-05T07:44:35.571Z,3.90
2023-04-05T07:47:04.220Z,3.80
2023-04-05T07:49:31.527Z,3.90
2023-04-05T07:51:58.889Z,3.90
2023-04-05T07:54:26.727Z,3.90
2023-04-05T07:56:57.652Z,4.00
2023-04-05T07:59:25.262Z,4.00
2023-04-05T08:01:52.886Z,4.00
2023-04-05T08:04:26.361Z,3.90
2023-04-05T08:06:53.698Z,4.00
2023-04-05T08:09:21.459Z,4.10
2023-04-05T08:11:48.905Z,4.00
2023-04-05T08:14:16.379Z,4.00
2023-04-05T08:16:44.218Z,3.90
2023-04-05T08:19:12.663Z,3.90
2023-04-05T08:21:41.329Z,3.80
2023-04-05T08:24:08.687Z,3.90
2023-04-05T08:26:35.999Z,3.70
2023-04-05T08:29:03.459Z,3.70
2023-04-05T08:31:31.336Z,3.80
2023-04-05T08:33:58.715Z,3.80
2023-04-05T08:36:26.889Z,3.90
2023-04-05T08:38:54.173Z,3.90
2023-04-05T08:41:26.307Z,3.90
2023-04-05T08:44:02.804Z,4.10
2023-04-05T08:46:35.299Z,4.20
2023-04-05T08:49:11.725Z,4.40
2023-04-05T08:51:39.580Z,4.60
2023-04-05T08:54:07.141Z,4.70
2023-04-05T08:56:36.016Z,4.80
2023-04-05T08:59:11.304Z,4.70
2023-04-05T09:01:43.005Z,4.80
2023-04-05T09:04:35.448Z,4.70
2023-04-05T09:07:06.380Z,4.70
2023-04-05T09:09:37.962Z,4.90
2023-04-05T09:12:06.112Z,4.80
2023-04-05T09:14:35.175Z,4.90
2023-04-05T09:17:07.038Z,5.00
2023-04-05T09:19:34.415Z,5.20
2023-04-05T09:22:07.594Z,5.30
2023-04-05T09:24:43.653Z,5.10
2023-04-05T09:27:18.779Z,5.10
2023-04-05T09:29:53.728Z,5.30
2023-04-05T09:32:27.853Z,5.60
2023-04-05T09:34:55.512Z,5.50
2023-04-05T09:37:26.305Z,5.40
2023-04-05T09:40:04.238Z,5.40
2023-04-05T09:42:43.469Z,5.50
2023-04-05T09:45:11.123Z,5.20
2023-04-05T09:47:58.129Z,5.40
2023-04-05T09:50:26.167Z,5.40
2023-04-05T09:53:16.654Z,5.60
2023-04-05T09:55:45.927Z,5.50
2023-04-05T09:58:22.787Z,5.60
2023-04-05T10:01:06.229Z,5.40
2023-04-05T10:03:49.128Z,5.50
2023-04-05T10:06:19.703Z,5.60
2023-04-05T10:08:51.641Z,5.60
2023-04-05T10:11:19.910Z,5.50
2023-04-05T10:13:49.322Z,5.60
2023-04-05T10:16:22.847Z,5.90
2023-04-05T10:18:52.340Z,5.90
2023-04-05T10:21:23.922Z,6.10
2023-04-05T10:24:01.445Z,6.20
2023-04-05T10:26:43.361Z,6.20
2023-04-05T10:29:15.352Z,6.20
2023-04-05T10:31:52.237Z,6.00
2023-04-05T10:34:39.117Z,6.00
2023-04-05T10:37:07.454Z,5.90
2023-04-05T10:39:46.954Z,5.90
2023-04-05T10:42:20.388Z,5.70
2023-04-05T10:45:00.420Z,5.60
2023-04-05T10:47:31.059Z,5.50
2023-04-05T10:50:03.833Z,5.50
2023-04-05T10:52:33.038Z,5.50
2023-04-05T10:55:03.441Z,5.30
2023-04-05T10:57:31.824Z,5.40
2023-04-05T11:00:00.939Z,5.40
2023-04-05T11:02:31.210Z,5.30
2023-04-05T11:05:05.062Z,5.30
2023-04-05T11:07:47.827Z,5.30
2023-04-05T11:10:19.569Z,5.30
2023-04-05T11:12:46.782Z,5.30
2023-04-05T11:15:33.372Z,5.20
2023-04-05T11:18:11.544Z,5.20
2023-04-05T11:20:42.816Z,5.30
2023-04-05T11:23:11.791Z,5.10
2023-04-05T11:25:42.885Z,5.10
2023-04-05T11:28:22.304Z,5.00
2023-04-05T11:30:56.927Z,4.90
2023-04-05T11:33:56.333Z,4.90
2023-04-05T11:36:33.818Z,4.90
2023-04-05T11:39:33.857Z,4.80
2023-04-05T11:42:12.379Z,5.00
2023-04-05T11:44:49.271Z,5.00
2023-04-05T11:47:23.502Z,5.10
2023-04-05T11:49:52.029Z,5.10
2023-04-05T11:52:21.348Z,5.10
2023-04-05T11:54:49.738Z,5.20
2023-04-05T11:57:23.800Z,5.30
2023-04-05T11:59:53.445Z,5.50
2023-04-05T12:02:22.093Z,5.50
2023-04-05T12:04:57.383Z,5.60
2023-04-05T12:07:29.007Z,5.50
2023-04-05T12:10:00.272Z,5.50
2023-04-05T12:12:27.607Z,5.50
2023-04-05T12:15:05.432Z,5.50
2023-04-05T12:17:47.287Z,5.60
2023-04-05T12:20:23.992Z,5.60
2023-04-05T12:22:53.833Z,5.60
2023-04-05T12:25:21.746Z,5.70
2023-04-05T12:27:49.175Z,5.70
2023-04-05T12:30:23.785Z,5.90
2023-04-05T12:32:52.920Z,5.90
2023-04-05T12:35:25.164Z,5.80
2023-04-05T12:37:52.521Z,5.70
2023-04-05T12:40:24.562Z,5.80
2023-04-05T12:42:52.366Z,5.90
2023-04-05T12:45:23.916Z,6.10
2023-04-05T12:48:00.529Z,6.10
2023-04-05T12:50:30.410Z,6.10
2023-04-05T12:52:58.884Z,6.10
2023-04-05T12:55:28.359Z,6.10
2023-04-05T12:57:59.639Z,6.00
2023-04-05T13:00:28.944Z,6.10
2023-04-05T13:02:58.306Z,6.10
2023-04-05T13:05:28.196Z,6.20
2023-04-05T13:07:55.539Z,6.20
2023-04-05T13:10:24.737Z,6.30
2023-04-05T13:12:52.178Z,6.40
2023-04-05T13:15:19.567Z,6.30
2023-04-05T13:17:50.185Z,6.40
2023-04-05T13:20:18.502Z,6.30
2023-04-05T13:22:46.965Z,6.40
2023-04-05T13:25:15.531Z,6.20
2023-04-05T13:27:43.229Z,6.10
2023-04-05T13:30:10.885Z,6.10
2023-04-05T13:32:38.392Z,6.10
2023-04-05T13:35:06.355Z,6.20
2023-04-05T13:37:33.673Z,6.10
2023-04-05T13:40:01.158Z,6.00
2023-04-05T13:42:28.454Z,5.90
2023-04-05T13:44:55.799Z,5.90
2023-04-05T13:47:23.011Z,5.90
2023-04-05T13:49:50.604Z,6.00
2023-04-05T13:52:18.209Z,5.90
2023-04-05T13:54:45.526Z,5.80
2023-04-05T13:57:14.312Z,5.70
2023-04-05T13:59:41.762Z,5.60
2023-04-05T14:02:09.452Z,5.60
2023-04-05T14:04:36.878Z,5.70
2023-04-05T14:07:04.867Z,5.50
2023-04-05T14:09:32.561Z,5.60
2023-04-05T14:12:01.491Z,5.60
2023-04-05T14:14:29.259Z,5.60
2023-04-05T14:16:56.592Z,5.60
2023-04-05T14:19:23.877Z,5.70
2023-04-05T14:21:51.578Z,5.80
2023-04-05T14:24:18.784Z,5.80
2023-04-05T14:26:50.006Z,5.80
2023-04-05T14:29:18.428Z,5.80
2023-04-05T14:31:46.245Z,5.80
2023-04-05T14:34:16.644Z,5.80
2023-04-05T14:36:44.438Z,5.80
2023-04-05T14:39:11.615Z,5.60
2023-04-05T14:41:39.123Z,5.60
2023-04-05T14:44:06.716Z,5.70
2023-04-05T14:46:34.048Z,5.60
2023-04-05T14:49:01.560Z,5.50
2023-04-05T14:51:37.133Z,5.50
2023-04-05T14:54:04.827Z,5.50
2023-04-05T14:56:32.197Z,5.60
2023-04-05T14:58:59.650Z,5.60
2023-04-05T15:01:26.960Z,5.60
2023-04-05T15:03:54.335Z,5.60
2023-04-05T15:06:21.545Z,5.80
2023-04-05T15:08:48.993Z,5.90
2023-04-05T15:11:16.255Z,6.00
2023-04-05T15:13:44.799Z,6.10
2023-04-05T15:16:12.007Z,6.10
2023-04-05T15:18:39.431Z,6.00
2023-04-05T15:21:07.544Z,6.00
2023-04-05T15:23:34.891Z,6.10
2023-04-05T15:26:02.086Z,6.00
2023-04-05T15:28:29.623Z,6.10
2023-04-05T15:30:57.028Z,6.10
2023-04-05T15:33:24.497Z,5.90
2023-04-05T15:35:51.774Z,5.90
2023-04-05T15:38:19.441Z,5.90
2023-04-05T15:40:52.563Z,6.00
2023-04-05T15:43:20.921Z,6.00
2023-04-05T15:45:48.215Z,6.10
2023-04-05T15:48:15.510Z,6.00
2023-04-05T15:50:43.197Z,5.90
2023-04-05T15:53:10.606Z,5.90
2023-04-05T15:55:37.759Z,5.80
2023-04-05T15:58:04.981Z,5.80
2023-04-05T16:00:33.666Z,5.80
2023-04-05T16:03:01.408Z,5.80
2023-04-05T16:05:28.924Z,5.90
2023-04-05T16:07:56.280Z,5.80
2023-04-05T16:10:23.847Z,5.80
2023-04-05T16:12:53.357Z,5.80
2023-04-05T16:15:20.639Z,5.80
2023-04-05T16:17:47.894Z,5.90
2023-04-05T16:20:15.525Z,5.80
2023-04-05T16:22:42.817Z,5.70
2023-04-05T16:25:09.957Z,5.70
2023-04-05T16:27:37.660Z,5.70
2023-04-05T16:30:05.899Z,5.70
2023-04-05T16:32:33.497Z,5.60
2023-04-05T16:35:01.004Z,5.70
2023-04-05T16:37:28.457Z,5.70
2023-04-05T16:39:56.088Z,5.70
2023-04-05T16:42:23.708Z,5.70
2023-04-05T16:44:51.184Z,5.70
2023-04-05T16:47:24.660Z,5.60
2023-04-05T16:49:52.683Z,5.60
2023-04-05T16:52:20.056Z,5.60
2023-04-05T16:54:47.289Z,5.60
2023-04-05T16:57:14.664Z,5.60
2023-04-05T16:59:41.965Z,5.60
2023-04-05T17:02:09.445Z,5.60
2023-04-05T17:04:37.690Z,5.60
2023-04-05T17:07:05.115Z,5.60
2023-04-05T17:09:33.246Z,5.50
2023-04-05T17:12:00.507Z,5.50
2023-04-05T17:14:27.690Z,5.50
2023-04-05T17:16:55.457Z,5.40
2023-04-05T17:19:23.003Z,5.30
2023-04-05T17:21:52.341Z,5.30
2023-04-05T17:24:25.250Z,5.30
2023-04-05T17:26:52.504Z,5.20
2023-04-05T17:29:19.748Z,5.20
2023-04-05T17:31:46.899Z,5.20
2023-04-05T17:34:15.049Z,5.30
2023-04-05T17:36:45.901Z,5.20
2023-04-05T17:39:14.286Z,5.20
2023-04-05T17:41:41.786Z,5.20
2023-04-05T17:44:09.107Z,5.10
2023-04-05T17:46:41.599Z,5.20
2023-04-05T17:49:13.979Z,5.20
2023-04-05T17:51:41.318Z,5.20
2023-04-05T17:54:08.821Z,5.20
2023-04-05T17:56:36.561Z,5.20
2023-04-05T17:59:05.152Z,5.20
2023-04-05T18:01:36.436Z,5.20
2023-04-05T18:04:06.032Z,5.20
2023-04-05T18:06:33.994Z,5.20
2023-04-05T18:09:02.149Z,5.30
2023-04-05T18:11:29.631Z,5.20
2023-04-05T18:13:56.853Z,5.20
2023-04-05T18:16:24.170Z,5.20
2023-04-05T18:18:51.725Z,5.10
2023-04-05T18:21:19.292Z,5.10
2023-04-05T18:23:46.728Z,5.10
2023-04-05T18:26:14.477Z,5.20
2023-04-05T18:28:41.980Z,5.20
2023-04-05T18:31:10.212Z,5.20
2023-04-05T18:33:39.452Z,5.20
2023-04-05T18:36:07.921Z,5.20
2023-04-05T18:38:35.422Z,5.20
2023-04-05T18:41:04.057Z,5.20
2023-04-05T18:43:31.649Z,5.20
2023-04-05T18:45:58.946Z,5.20
2023-04-05T18:48:26.428Z,5.10
2023-04-05T18:50:54.218Z,5.20
2023-04-05T18:53:22.325Z,5.20
2023-04-05T18:55:53.574Z,5.10
2023-04-05T18:58:21.450Z,5.10
2023-04-05T19:00:48.622Z,5.00
2023-04-05T19:03:16.321Z,5.10
2023-04-05T19:05:57.980Z,5.10
2023-04-05T19:08:26.103Z,5.20
2023-04-05T19:10:53.422Z,5.10
2023-04-05T19:13:20.716Z,5.00
2023-04-05T19:15:48.050Z,5.00
2023-04-05T19:18:15.628Z,5.00
2023-04-05T19:20:43.207Z,4.90
2023-04-05T19:23:10.936Z,4.90
2023-04-05T19:25:38.759Z,4.90
2023-04-05T19:28:06.089Z,4.90
2023-04-05T19:30:33.683Z,4.90
2023-04-05T19:33:02.154Z,4.90
2023-04-05T19:35:31.882Z,5.00
2023-04-05T19:37:59.295Z,5.10
2023-04-05T19:40:27.043Z,5.00
2023-04-05T19:42:54.510Z,5.10
2023-04-05T19:45:29.670Z,5.00
2023-04-05T19:47:59.884Z,5.00
2023-04-05T19:50:48.416Z,5.00
2023-04-05T19:53:48.115Z,5.10
2023-04-05T19:56:19.575Z,5.10
2023-04-05T19:58:54.590Z,5.00
2023-04-05T20:01:39.112Z,5.00
2023-04-05T20:04:17.499Z,5.00
2023-04-05T20:06:54.268Z,5.00
2023-04-05T20:09:24.428Z,4.90
2023-04-05T20:12:02.065Z,4.90
2023-04-05T20:14:36.861Z,4.90
2023-04-05T20:17:05.187Z,5.00
2023-04-05T20:19:34.592Z,5.00
2023-04-05T20:22:02.629Z,5.10
2023-04-05T20:24:29.924Z,5.00
2023-04-05T20:26:57.485Z,5.00
2023-04-05T20:29:39.047Z,5.00
2023-04-05T20:32:06.669Z,5.00
2023-04-05T20:34:41.638Z,5.00
2023-04-05T20:37:12.182Z,4.90
2023-04-05T20:39:41.516Z,4.90
2023-04-05T20:42:11.484Z,4.90
2023-04-05T20:44:39.483Z,4.90
2023-04-05T20:47:08.459Z,4.80
2023-04-05T20:49:36.139Z,4.70
2023-04-05T20:52:07.978Z,4.80
2023-04-05T20:54:35.731Z,4.80
2023-04-05T20:57:03.117Z,4.80
2023-04-05T20:59:30.753Z,4.70
2023-04-05T21:01:58.138Z,4.60
2023-04-05T21:04:28.100Z,4.60
2023-04-05T21:06:58.189Z,4.60
2023-04-05T21:09:25.835Z,4.60
2023-04-05T21:11:53.242Z,4.60
2023-04-05T21:14:20.476Z,4.50
2023-04-05T21:16:47.801Z,4.50
2023-04-05T21:19:14.953Z,4.40
2023-04-05T21:21:42.150Z,4.40
2023-04-05T21:24:09.401Z,4.40
2023-04-05T21:26:36.798Z,4.40
2023-04-05T21:29:04.063Z,4.30
2023-04-05T21:31:31.486Z,4.40
2023-04-05T21:33:58.822Z,4.30
2023-04-05T21:36:27.271Z,4.40
2023-04-05T21:38:54.472Z,4.30
2023-04-05T21:41:21.707Z,4.30
2023-04-05T21:43:48.850Z,4.30
2023-04-05T21:46:16.634Z,4.30
2023-04-05T21:48:44.658Z,4.30
2023-04-05T21:51:11.885Z,4.30
2023-04-05T21:53:39.067Z,4.20
2023-04-05T21:56:06.337Z,4.20
2023-04-05T21:58:33.710Z,4.20
2023-04-05T22:01:01.645Z,4.20
2023-04-05T22:03:28.852Z,4.20
2023-04-05T22:05:56.228Z,4.20
2023-04-05T22:08:23.460Z,4.20
2023-04-05T22:10:51.088Z,4.20
2023-04-05T22:13:18.305Z,4.20
2023-04-05T22:15:45.960Z,4.20
2023-04-05T22:18:14.047Z,4.20
2023-04-05T22:20:41.376Z,4.20
2023-04-05T22:23:08.520Z,4.10
2023-04-05T22:25:36.116Z,4.20
2023-04-05T22:28:03.638Z,4.20
2023-04-05T22:30:42.840Z,4.20
2023-04-05T22:33:12.986Z,4.10
2023-04-05T22:35:41.428Z,4.20
2023-04-05T22:38:09.049Z,4.20
2023-04-05T22:40:36.498Z,4.10
2023-04-05T22:43:07.429Z,4.10
2023-04-05T22:45:34.944Z,4.10
2023-04-05T22:48:02.237Z,4.10
2023-04-05T22:50:29.552Z,4.10
2023-04-05T22:52:56.915Z,4.10
2023-04-05T22:55:24.714Z,4.00
2023-04-05T22:57:51.890Z,4.10
2023-04-05T23:00:19.503Z,4.10
2023-04-05T23:02:46.767Z,4.10
2023-04-05T23:05:14.149Z,4.20
2023-04-05T23:07:41.644Z,4.20
2023-04-05T23:10:09.487Z,4.10
2023-04-05T23:12:36.781Z,4.10
2023-04-05T23:15:08.231Z,4.10
2023-04-05T23:17:35.537Z,4.10
2023-04-05T23:20:05.880Z,4.10
2023-04-05T23:22:34.883Z,4.10
2023-04-05T23:25:06.173Z,4.10
2023-04-05T23:27:33.589Z,4.10
2023-04-05T23:30:00.941Z,4.10
2023-04-05T23:32:28.735Z,4.10
2023-04-05T23:34:56.234Z,4.20
2023-04-05T23:37:23.529Z,4.20
2023-04-05T23:39:50.786Z,4.20
2023-04-05T23:42:17.981Z,4.20
2023-04-05T23:44:45.417Z,4.20
2023-04-05T23:47:12.664Z,4.20
2023-04-05T23:49:39.917Z,4.10
2023-04-05T23:52:07.277Z,4.20
2023-04-05T23:54:34.498Z,4.20
2023-04-05T23:57:02.094Z,4.10
2023-04-05T23:59:29.531Z,4.10
